createdAt,value
2023-02-15T00:07:18.771Z,53.50
2023-02-15T00:17:22.258Z,52.72
2023-02-15T00:27:24.842Z,53.33
2023-02-15T00:37:27.143Z,53.25
2023-02-15T00:47:30.329Z,54.58
2023-02-15T00:57:32.444Z,53.30
2023-02-15T01:07:34.822Z,54.10
2023-02-15T01:17:37.455Z,52.52
2023-02-15T01:27:39.797Z,55.08
2023-02-15T01:37:41.967Z,54.21
2023-02-15T01:47:46.993Z,53.76
2023-02-15T01:57:49.825Z,54.56
2023-02-15T02:07:56.089Z,54.33
2023-02-15T02:18:16.382Z,55.62
2023-02-15T02:28:43.254Z,54.70
2023-02-15T02:39:07.123Z,54.45
2023-02-15T02:49:09.616Z,54.29
2023-02-15T02:59:20.528Z,54.22
2023-02-15T03:09:42.720Z,53.64
2023-02-15T03:19:47.072Z,55.85
2023-02-15T03:29:56.719Z,54.25
2023-02-15T03:40:26.092Z,53.54
2023-02-15T03:50:51.205Z,52.68
2023-02-15T04:01:18.879Z,53.29
2023-02-15T04:11:21.373Z,53.29
2023-02-15T04:21:43.339Z,54.44
2023-02-15T04:31:45.793Z,55.16
2023-02-15T04:41:48.744Z,54.09
2023-02-15T04:51:51.121Z,54.14
2023-02-15T05:01:53.502Z,54.58
2023-02-15T05:11:55.910Z,53.39
2023-02-15T05:21:58.032Z,53.64
2023-02-15T05:32:01.447Z,55.05
2023-02-15T05:42:05.171Z,53.33
2023-02-15T05:52:13.374Z,55.00
2023-02-15T06:02:16.818Z,53.68
2023-02-15T06:12:18.957Z,58.37
2023-02-15T06:22:22.251Z,55.72
2023-02-15T06:32:24.714Z,54.79
2023-02-15T06:42:27.214Z,54.12
2023-02-15T06:52:30.774Z,54.30
2023-02-15T07:02:34.158Z,54.93
2023-02-15T07:12:42.289Z,54.93
2023-02-15T07:22:44.645Z,54.30
2023-02-15T07:33:05.915Z,54.67
2023-02-15T07:43:08.220Z,54.44
2023-02-15T07:53:10.625Z,54.66
2023-02-15T08:03:15.754Z,54.43
2023-02-15T08:13:18.309Z,54.53
2023-02-15T08:23:20.681Z,54.99
2023-02-15T08:33:23.353Z,54.30
2023-02-15T08:43:27.541Z,50.94
2023-02-15T08:53:29.642Z,50.75
2023-02-15T09:03:31.954Z,49.50
2023-02-15T09:13:35.004Z,47.31
2023-02-15T09:23:37.809Z,44.83
2023-02-15T09:33:41.801Z,44.05
2023-02-15T09:43:53.091Z,44.15
2023-02-15T09:54:14.857Z,42.43
2023-02-15T10:04:43.114Z,41.39
2023-02-15T10:15:23.048Z,44.98
2023-02-15T10:25:46.258Z,44.45
2023-02-15T10:35:51.462Z,41.53
2023-02-15T10:46:00.811Z,38.67
2023-02-15T10:56:26.044Z,37.49
2023-02-15T11:06:28.595Z,35.37
2023-02-15T11:16:33.762Z,36.61
2023-02-15T11:26:42.050Z,35.27
2023-02-15T11:36:44.730Z,35.85
2023-02-15T11:46:47.060Z,34.81
2023-02-15T11:56:49.339Z,33.02
2023-02-15T12:07:03.099Z,32.12
2023-02-15T12:17:14.274Z,33.55
2023-02-15T12:27:23.199Z,32.09
2023-02-15T12:37:29.027Z,32.51
2023-02-15T12:47:32.325Z,33.10
2023-02-15T12:57:34.874Z,31.74
2023-02-15T13:07:37.957Z,31.14
2023-02-15T13:17:40.172Z,30.62
2023-02-15T13:27:43.665Z,31.50
2023-02-15T13:38:03.937Z,31.31
2023-02-15T13:48:45.005Z,31.54
2023-02-15T13:59:00.687Z,30.72
2023-02-15T14:09:05.926Z,31.91
2023-02-15T14:19:26.263Z,32.05
2023-02-15T14:29:54.837Z,30.26
2023-02-15T14:40:21.215Z,29.78
2023-02-15T14:50:34.680Z,29.79
2023-02-15T15:00:39.787Z,30.31
2023-02-15T15:10:44.932Z,30.49
2023-02-15T15:20:52.033Z,30.71
2023-02-15T15:30:55.675Z,30.04
2023-02-15T15:41:04.785Z,30.20
2023-02-15T15:51:13.073Z,30.49
2023-02-15T16:01:15.976Z,33.21
2023-02-15T16:11:26.056Z,33.63
2023-02-15T16:21:35.710Z,33.26
2023-02-15T16:31:40.133Z,34.10
2023-02-15T16:41:47.255Z,33.78
2023-02-15T16:51:56.745Z,34.35
2023-02-15T17:01:59.266Z,35.30
2023-02-15T17:12:03.149Z,36.75
2023-02-15T17:22:07.734Z,35.64
2023-02-15T17:32:18.811Z,37.82
2023-02-15T17:42:23.221Z,37.57
2023-02-15T17:52:26.516Z,37.40
2023-02-15T18:02:52.160Z,36.63
2023-02-15T18:12:54.274Z,38.56
2023-02-15T18:22:56.556Z,39.10
2023-02-15T18:32:59.478Z,39.99
2023-02-15T18:43:01.625Z,40.35
2023-02-15T18:53:05.190Z,40.47
2023-02-15T19:03:07.480Z,41.51
2023-02-15T19:13:11.738Z,41.14
2023-02-15T19:23:18.767Z,42.16
2023-02-15T19:33:21.963Z,41.74
2023-02-15T19:43:26.407Z,41.94
2023-02-15T19:53:29.333Z,41.46
2023-02-15T20:03:31.412Z,41.60
2023-02-15T20:13:33.606Z,41.38
2023-02-15T20:23:45.823Z,43.53
2023-02-15T20:33:48.825Z,44.29
2023-02-15T20:43:52.115Z,44.02
2023-02-15T20:53:55.244Z,44.58
2023-02-15T21:03:59.500Z,45.67
